createdAt,value
2023-11-29T00:05:49.813Z,71.83
2023-11-29T00:15:52.748Z,71.22
2023-11-29T00:25:57.034Z,71.01
2023-11-29T00:35:59.890Z,70.55
2023-11-29T00:46:04.448Z,69.98
2023-11-29T00:56:08.538Z,69.16
2023-11-29T01:06:12.775Z,68.91
2023-11-29T01:16:15.621Z,68.97
2023-11-29T01:26:19.781Z,68.80
2023-11-29T01:36:22.920Z,68.51
2023-11-29T01:46:27.249Z,67.79
2023-11-29T01:56:30.115Z,67.38
2023-11-29T02:06:35.444Z,67.23
2023-11-29T02:16:38.523Z,66.59
2023-11-29T02:26:42.994Z,66.81
2023-11-29T02:36:45.887Z,66.88
2023-11-29T02:46:50.135Z,66.69
2023-11-29T02:56:53.410Z,67.09
2023-11-29T03:06:57.623Z,66.45
2023-11-29T03:17:00.555Z,66.91
2023-11-29T03:27:04.943Z,67.37
2023-11-29T03:37:07.786Z,67.48
2023-11-29T03:47:12.075Z,67.56
2023-11-29T03:57:14.956Z,67.85
2023-11-29T04:07:19.500Z,68.64
2023-11-29T04:17:22.373Z,68.85
2023-11-29T04:27:26.649Z,69.15
2023-11-29T04:37:29.557Z,69.03
2023-11-29T04:47:33.920Z,68.84
2023-11-29T04:57:36.893Z,69.10
2023-11-29T05:07:41.204Z,68.82
2023-11-29T05:17:44.193Z,68.73
2023-11-29T05:27:48.460Z,69.12
2023-11-29T05:37:51.386Z,68.88
2023-11-29T05:47:55.647Z,69.05
2023-11-29T05:57:58.585Z,68.85
2023-11-29T06:08:03.074Z,69.12
2023-11-29T06:18:06.710Z,69.09
2023-11-29T06:28:11.028Z,69.23
2023-11-29T06:38:13.896Z,69.36
2023-11-29T06:48:19.907Z,69.05
2023-11-29T06:58:24.303Z,69.01
2023-11-29T07:08:28.714Z,69.03
2023-11-29T07:18:31.747Z,69.76
2023-11-29T07:28:35.983Z,70.19
2023-11-29T07:38:38.858Z,70.89
2023-11-29T07:48:43.205Z,71.52
2023-11-29T07:58:47.750Z,71.51
2023-11-29T08:08:52.164Z,71.16
2023-11-29T08:18:55.236Z,71.07
2023-11-29T08:28:59.813Z,71.40
2023-11-29T08:39:02.673Z,69.94
2023-11-29T08:49:07.004Z,70.29
2023-11-29T08:59:09.977Z,70.69
2023-11-29T09:09:14.460Z,70.22
2023-11-29T09:19:17.610Z,69.23
2023-11-29T09:29:22.047Z,69.17
2023-11-29T09:39:24.861Z,69.66
2023-11-29T09:49:30.133Z,69.46
2023-11-29T09:59:33.012Z,68.51
2023-11-29T10:09:40.292Z,68.70
2023-11-29T10:19:44.440Z,68.45
2023-11-29T10:29:48.794Z,68.61
2023-11-29T10:39:55.804Z,67.97
2023-11-29T10:50:03.716Z,68.39
2023-11-29T11:00:16.350Z,67.69
2023-11-29T11:10:26.589Z,66.11
2023-11-29T11:20:49.675Z,65.73
2023-11-29T11:30:55.381Z,66.22
2023-11-29T11:40:58.226Z,66.89
2023-11-29T11:51:03.223Z,66.85
2023-11-29T12:01:06.635Z,67.16
2023-11-29T12:11:10.902Z,67.57
2023-11-29T12:21:14.312Z,67.77
2023-11-29T12:31:18.773Z,68.03
2023-11-29T12:41:21.641Z,68.55
2023-11-29T12:51:25.759Z,68.31
2023-11-29T13:01:29.808Z,68.65
2023-11-29T13:11:34.056Z,68.29
2023-11-29T13:21:37.608Z,68.41
2023-11-29T13:31:41.844Z,68.53
2023-11-29T13:41:44.820Z,68.09
2023-11-29T13:52:00.677Z,67.56
2023-11-29T14:02:17.976Z,68.31
2023-11-29T14:12:23.442Z,67.84
2023-11-29T14:22:26.392Z,67.64
2023-11-29T14:32:30.865Z,68.22
2023-11-29T14:42:33.689Z,68.77
2023-11-29T14:52:37.828Z,68.92
2023-11-29T15:02:40.769Z,69.29
2023-11-29T15:12:44.867Z,69.58
2023-11-29T15:22:47.641Z,69.72
2023-11-29T15:32:53.640Z,70.07
2023-11-29T15:42:58.523Z,70.19
2023-11-29T15:53:03.753Z,70.51
2023-11-29T16:03:06.692Z,70.98
2023-11-29T16:13:10.917Z,71.12
2023-11-29T16:23:13.699Z,71.17
2023-11-29T16:33:19.078Z,71.33
2023-11-29T16:43:21.957Z,71.85
2023-11-29T16:53:28.077Z,71.76
2023-11-29T17:03:31.312Z,71.66
2023-11-29T17:13:35.522Z,72.30
2023-11-29T17:23:38.395Z,72.29
2023-11-29T17:33:42.667Z,72.27
2023-11-29T17:43:45.633Z,72.34
2023-11-29T17:53:49.834Z,72.79
2023-11-29T18:03:52.787Z,72.64
2023-11-29T18:13:57.225Z,73.14
2023-11-29T18:24:01.667Z,73.14
2023-11-29T18:34:06.617Z,73.27
2023-11-29T18:44:10.402Z,73.15
2023-11-29T18:54:14.834Z,73.19
2023-11-29T19:04:18.134Z,73.28
2023-11-29T19:14:22.665Z,73.55
2023-11-29T19:24:25.627Z,74.12
2023-11-29T19:34:30.305Z,74.35
2023-11-29T19:44:33.199Z,74.22
2023-11-29T19:54:37.542Z,74.42
2023-11-29T20:04:40.473Z,74.27
2023-11-29T20:14:46.957Z,74.09
2023-11-29T20:24:52.342Z,74.38
2023-11-29T20:35:09.330Z,74.60
2023-11-29T20:45:20.058Z,74.78
2023-11-29T20:55:24.370Z,74.74
2023-11-29T21:05:27.402Z,74.85
2023-11-29T21:15:31.937Z,74.94
2023-11-29T21:25:37.625Z,75.65
2023-11-29T21:35:42.362Z,75.44
2023-11-29T21:45:45.798Z,75.55
2023-11-29T21:55:50.043Z,75.17
2023-11-29T22:05:53.777Z,75.41
2023-11-29T22:15:58.057Z,75.75
2023-11-29T22:26:01.053Z,75.47
2023-11-29T22:36:06.030Z,75.07
2023-11-29T22:46:09.682Z,75.16
2023-11-29T22:56:14.843Z,75.33
2023-11-29T23:06:18.383Z,75.06
2023-11-29T23:16:22.554Z,75.43
2023-11-29T23:26:25.373Z,75.53
2023-11-29T23:36:29.560Z,75.61
2023-11-29T23:46:32.358Z,75.48
2023-11-29T23:56:36.804Z,75.51
